Time;durP1;ratioP1;P1;durP2;ratioP2;P2;SDS_P1;SDS_P2;PMS_P1;PMS_P2;Temp;Humidity;BMP_temperature;BMP_pressure;BME280_temperature;BME280_humidity;BME280_pressure;Samples;Min_cycle;Max_cycle;Signal;HPM_P1;HPM_P2
2022/12/06 00:01:41;;;;;;;2.40;2.30;;;15.90;64.80;;;;;;4986563;28;20046;-17
2022/12/06 00:04:10;;;;;;;2.80;2.60;;;15.90;64.80;;;;;;4985167;28;20034;-19
2022/12/06 00:06:40;;;;;;;2.30;2.20;;;15.90;64.80;;;;;;4988721;28;20062;-17
2022/12/06 00:09:06;;;;;;;3.15;2.95;;;15.90;64.80;;;;;;4990772;28;20031;-17
2022/12/06 00:11:32;;;;;;;2.20;2.10;;;15.90;64.80;;;;;;4989854;28;20054;-16
2022/12/06 00:14:03;;;;;;;2.45;2.35;;;15.90;65.70;;;;;;4990575;28;20515;-16
2022/12/06 00:16:29;;;;;;;2.20;2.10;;;15.90;64.90;;;;;;4989623;28;20050;-17
2022/12/06 00:18:54;;;;;;;2.45;2.35;;;15.90;64.60;;;;;;4989269;28;20057;-17
2022/12/06 00:21:21;;;;;;;2.58;2.38;;;15.90;64.50;;;;;;4990461;28;20046;-17
2022/12/06 00:23:48;;;;;;;2.13;2.03;;;15.90;64.60;;;;;;4988889;28;20050;-17
2022/12/06 00:26:14;;;;;;;2.40;2.30;;;15.90;64.60;;;;;;4988359;28;20492;-17
2022/12/06 00:28:40;;;;;;;2.30;2.20;;;15.90;64.60;;;;;;4988880;28;20038;-16
2022/12/06 00:31:08;;;;;;;2.20;2.10;;;15.90;64.50;;;;;;4990599;28;20043;-17
2022/12/06 00:33:34;;;;;;;2.60;2.40;;;15.90;64.60;;;;;;4989494;28;20057;-17
2022/12/06 00:36:09;;;;;;;2.22;2.13;;;15.90;64.60;;;;;;4990041;28;20500;-17
2022/12/06 00:38:35;;;;;;;2.22;2.13;;;15.90;64.60;;;;;;4988418;28;20034;-18
2022/12/06 00:41:20;;;;;;;2.20;2.10;;;15.90;64.50;;;;;;4990045;28;20046;-16
2022/12/06 00:43:46;;;;;;;2.30;2.20;;;15.90;64.60;;;;;;4988623;28;20125;-16
2022/12/06 00:46:15;;;;;;;2.25;2.15;;;15.90;64.60;;;;;;4990080;28;20196;-17
2022/12/06 00:48:41;;;;;;;2.35;2.25;;;15.90;64.60;;;;;;4989427;28;20704;-17
2022/12/06 00:51:06;;;;;;;2.20;2.10;;;15.90;64.50;;;;;;4990159;28;20700;-34
2022/12/06 00:53:32;;;;;;;2.78;2.58;;;15.80;64.50;;;;;;4988463;28;20042;-33
2022/12/06 00:55:58;;;;;;;2.55;2.25;;;15.90;64.60;;;;;;4989715;28;20050;-33
2022/12/06 00:58:23;;;;;;;2.33;2.22;;;15.90;64.50;;;;;;4989878;28;20102;-34
2022/12/06 01:00:49;;;;;;;2.75;2.55;;;15.90;64.60;;;;;;4989554;28;20043;-38
2022/12/06 01:03:15;;;;;;;1.88;1.77;;;15.90;64.50;;;;;;4989204;28;20058;-34
2022/12/06 01:05:45;;;;;;;1.77;1.67;;;15.90;64.50;;;;;;4988434;28;20049;-32
2022/12/06 01:08:11;;;;;;;2.40;2.30;;;15.80;64.40;;;;;;4989519;28;20061;-33
2022/12/06 01:10:37;;;;;;;1.80;1.70;;;15.80;64.40;;;;;;4988316;28;20432;-37
2022/12/06 01:13:02;;;;;;;2.08;1.98;;;15.90;64.50;;;;;;4988930;28;20415;-34
2022/12/06 01:15:28;;;;;;;2.17;2.08;;;15.90;64.50;;;;;;4987664;28;20038;-33
2022/12/06 01:17:54;;;;;;;2.10;2.00;;;15.80;64.30;;;;;;4988598;28;20093;-31
2022/12/06 01:20:19;;;;;;;2.10;2.00;;;15.90;64.20;;;;;;4987197;28;20053;-30
2022/12/06 01:22:45;;;;;;;1.90;1.80;;;15.90;64.20;;;;;;4988758;28;20046;-36
2022/12/06 01:25:10;;;;;;;2.22;2.03;;;15.80;64.40;;;;;;4989174;28;20056;-32
2022/12/06 01:27:36;;;;;;;2.00;1.90;;;15.80;64.30;;;;;;4988936;28;20046;-34
2022/12/06 01:30:02;;;;;;;2.30;2.20;;;15.80;64.40;;;;;;4988117;28;20531;-35
2022/12/06 01:32:28;;;;;;;1.92;1.83;;;15.80;64.50;;;;;;4989521;28;20042;-35
2022/12/06 01:34:54;;;;;;;2.22;2.13;;;15.80;64.50;;;;;;4987231;28;20065;-36
2022/12/06 01:37:20;;;;;;;2.33;2.22;;;15.80;65.40;;;;;;4989083;28;20038;-34
2022/12/06 01:39:45;;;;;;;2.33;2.22;;;15.80;64.50;;;;;;4988043;28;20042;-37
2022/12/06 01:42:11;;;;;;;2.22;2.13;;;15.80;64.50;;;;;;4988992;28;20146;-32
2022/12/06 01:44:43;;;;;;;2.03;1.92;;;15.80;64.40;;;;;;4984589;28;20500;-32
2022/12/06 01:47:15;;;;;;;2.08;1.98;;;15.80;64.40;;;;;;4986299;28;20046;-34
2022/12/06 01:49:41;;;;;;;1.80;1.70;;;15.80;64.40;;;;;;4984430;28;20070;-33
2022/12/06 01:52:08;;;;;;;1.90;1.80;;;15.80;64.40;;;;;;4987355;28;20139;-35
2022/12/06 01:54:33;;;;;;;2.55;2.45;;;15.80;64.40;;;;;;4987144;28;20038;-37
2022/12/06 01:56:59;;;;;;;1.65;1.55;;;15.80;64.40;;;;;;4986182;28;20054;-36
2022/12/06 01:59:24;;;;;;;2.10;2.00;;;15.80;64.40;;;;;;4982750;28;20041;-31
2022/12/06 02:01:50;;;;;;;2.20;2.10;;;15.80;64.40;;;;;;4985971;28;20046;-32
2022/12/06 02:04:16;;;;;;;1.92;1.83;;;15.80;64.40;;;;;;4987714;28;20044;-33
2022/12/06 02:06:42;;;;;;;2.03;1.92;;;15.80;64.40;;;;;;4982678;28;20492;-32
2022/12/06 02:09:08;;;;;;;1.90;1.80;;;15.80;64.40;;;;;;4983879;28;20062;-34
2022/12/06 02:11:34;;;;;;;2.20;2.10;;;15.80;64.30;;;;;;4986419;28;20042;-34
2022/12/06 02:14:00;;;;;;;2.15;2.05;;;15.80;64.40;;;;;;4987440;28;20120;-33
2022/12/06 02:16:56;;;;;;;2.13;2.03;;;15.80;64.30;;;;;;4987517;28;20570;-39
2022/12/06 02:19:35;;;;;;;2.30;2.20;;;15.80;64.40;;;;;;4967518;28;20043;-32
2022/12/06 02:22:21;;;;;;;1.92;1.83;;;15.80;65.10;;;;;;5014513;28;20077;-36
2022/12/06 02:25:21;;;;;;;2.10;2.00;;;15.80;64.30;;;;;;4984297;28;20042;-33
2022/12/06 02:28:11;;;;;;;2.15;2.05;;;15.80;64.30;;;;;;4981063;28;20447;-34
2022/12/06 02:30:54;;;;;;;1.90;1.80;;;15.80;64.20;;;;;;4986473;28;20047;-33
2022/12/06 02:33:40;;;;;;;2.17;1.98;;;15.80;64.30;;;;;;4986418;28;20046;-35
2022/12/06 02:36:24;;;;;;;2.13;1.95;;;15.70;64.30;;;;;;4987267;28;20061;-33
2022/12/06 02:38:55;;;;;;;1.95;1.85;;;15.70;64.40;;;;;;4983887;28;20042;-34
2022/12/06 02:41:43;;;;;;;2.13;2.03;;;15.70;64.30;;;;;;4985710;28;20592;-36
2022/12/06 02:44:34;;;;;;;1.88;1.77;;;15.80;64.10;;;;;;4969241;28;20057;-33
2022/12/06 02:46:59;;;;;;;2.20;2.10;;;15.70;64.30;;;;;;4979030;28;20042;-31
2022/12/06 02:49:25;;;;;;;2.42;2.30;;;15.70;64.30;;;;;;4987471;28;20099;-34
2022/12/06 02:51:51;;;;;;;1.98;1.88;;;15.70;64.20;;;;;;4985394;28;20035;-33
2022/12/06 02:54:17;;;;;;;1.70;1.60;;;15.70;64.40;;;;;;4985847;28;20069;-35
2022/12/06 02:56:42;;;;;;;2.35;2.15;;;15.70;64.40;;;;;;5015818;28;20042;-30
2022/12/06 02:59:09;;;;;;;2.30;2.20;;;15.70;64.30;;;;;;4985246;28;20046;-34
2022/12/06 03:01:37;;;;;;;1.90;1.80;;;15.70;64.20;;;;;;4986139;28;20089;-34
2022/12/06 03:04:45;;;;;;;1.83;1.73;;;15.70;64.30;;;;;;4986000;28;20042;-32
2022/12/06 03:07:41;;;;;;;1.90;1.80;;;15.70;64.10;;;;;;4987142;28;20439;-35
2022/12/06 03:10:36;;;;;;;1.85;1.75;;;15.70;64.20;;;;;;4984320;28;20050;-35
2022/12/06 03:13:22;;;;;;;2.10;2.00;;;15.70;64.30;;;;;;4985031;28;20620;-36
2022/12/06 03:16:00;;;;;;;2.25;2.15;;;15.70;64.10;;;;;;4978931;28;20038;-35
2022/12/06 03:18:37;;;;;;;2.30;2.20;;;15.70;64.30;;;;;;4983664;28;20058;-31
2022/12/06 03:21:08;;;;;;;2.08;1.98;;;15.70;64.40;;;;;;4984809;28;20050;-32
2022/12/06 03:23:39;;;;;;;1.83;1.73;;;15.70;64.40;;;;;;4969119;28;20503;-35
2022/12/06 03:26:05;;;;;;;2.00;1.90;;;15.70;64.40;;;;;;5010041;28;20169;-33
2022/12/06 03:28:31;;;;;;;2.17;1.95;;;15.70;64.40;;;;;;5013428;28;20050;-33
2022/12/06 03:31:04;;;;;;;2.05;1.95;;;15.70;64.30;;;;;;4993564;28;20046;-32
2022/12/06 03:33:31;;;;;;;1.80;1.70;;;15.60;64.30;;;;;;4993053;28;20038;-33
2022/12/06 03:35:56;;;;;;;2.03;1.92;;;15.70;64.40;;;;;;5009447;28;20282;-33
2022/12/06 03:38:30;;;;;;;2.00;1.90;;;15.70;64.50;;;;;;4986058;28;20050;-35
2022/12/06 03:40:55;;;;;;;2.15;2.05;;;15.70;64.40;;;;;;5009751;28;20054;-33
2022/12/06 03:43:21;;;;;;;2.00;1.90;;;15.70;64.30;;;;;;4990904;28;20509;-30
2022/12/06 03:45:58;;;;;;;1.90;1.80;;;15.70;64.30;;;;;;5013416;28;20041;-32
2022/12/06 03:48:51;;;;;;;2.05;1.95;;;15.70;64.20;;;;;;4972208;28;20561;-33
2022/12/06 03:51:25;;;;;;;1.65;1.55;;;15.70;64.20;;;;;;4984186;28;20053;-38
2022/12/06 03:53:56;;;;;;;2.22;2.13;;;15.60;64.10;;;;;;4989371;28;20046;-36
2022/12/06 03:56:22;;;;;;;2.38;2.28;;;15.70;65.00;;;;;;4986507;28;20038;-35
2022/12/06 03:58:48;;;;;;;2.35;2.25;;;15.70;64.30;;;;;;4987188;28;20042;-32
2022/12/06 04:01:13;;;;;;;2.28;2.17;;;15.70;64.10;;;;;;4988334;28;21423;-37
2022/12/06 04:03:39;;;;;;;2.20;2.10;;;15.70;64.30;;;;;;4988463;28;20096;-36
2022/12/06 04:06:05;;;;;;;1.85;1.75;;;15.70;64.10;;;;;;4989104;28;20046;-32
2022/12/06 04:08:31;;;;;;;1.95;1.85;;;15.70;64.00;;;;;;4989760;28;20050;-34
2022/12/06 04:10:56;;;;;;;2.10;2.00;;;15.70;64.10;;;;;;4988874;28;20459;-34
2022/12/06 04:13:22;;;;;;;2.13;2.00;;;15.70;64.00;;;;;;4988827;28;20401;-35
2022/12/06 04:15:48;;;;;;;2.33;2.17;;;15.70;64.00;;;;;;4991156;28;20066;-28
2022/12/06 04:18:13;;;;;;;2.05;1.95;;;15.70;64.10;;;;;;4990019;28;20073;-30
2022/12/06 04:23:28;;;;;;;1.88;1.77;;;15.70;64.20;;;;;;4989437;28;20049;-32
2022/12/06 04:25:54;;;;;;;1.95;1.85;;;15.60;64.10;;;;;;4988361;28;20046;-35
2022/12/06 04:39:16;;;;;;;2.22;2.13;;;15.70;64.10;;;;;;4988253;28;20065;-35
2022/12/06 04:44:26;;;;;;;1.98;1.88;;;15.60;64.00;;;;;;4989524;28;20061;-33
2022/12/06 04:46:52;;;;;;;1.90;1.80;;;15.60;64.80;;;;;;4989492;28;20567;-33
2022/12/06 04:49:17;;;;;;;2.17;2.00;;;15.60;64.10;;;;;;4989091;28;20125;-34
2022/12/06 04:51:43;;;;;;;2.10;2.00;;;15.60;65.00;;;;;;4989650;28;20058;-35
2022/12/06 04:54:09;;;;;;;1.80;1.70;;;15.60;64.10;;;;;;4989282;28;20053;-33
2022/12/06 04:56:34;;;;;;;1.85;1.75;;;15.60;64.10;;;;;;4989356;28;20495;-39
2022/12/06 04:59:00;;;;;;;1.92;1.83;;;15.60;64.00;;;;;;4988552;28;20136;-33
2022/12/06 05:01:25;;;;;;;2.50;2.40;;;15.60;64.00;;;;;;4988276;28;20133;-34
2022/12/06 05:03:51;;;;;;;1.98;1.88;;;15.60;64.00;;;;;;4988623;28;20038;-36
2022/12/06 05:06:17;;;;;;;3.05;2.28;;;15.60;64.00;;;;;;4988415;28;20104;-32
2022/12/06 05:08:42;;;;;;;1.80;1.70;;;15.60;64.00;;;;;;4989674;28;20452;-33
2022/12/06 05:11:08;;;;;;;2.05;1.95;;;15.60;64.00;;;;;;4987362;28;20072;-32
2022/12/06 05:13:34;;;;;;;2.28;2.17;;;15.70;63.90;;;;;;4989462;28;20042;-32
2022/12/06 05:16:03;;;;;;;2.13;1.92;;;15.60;64.00;;;;;;4986216;28;20508;-39
2022/12/06 05:18:29;;;;;;;2.00;1.90;;;15.60;64.00;;;;;;4988853;28;20042;-37
2022/12/06 05:21:24;;;;;;;3.92;2.20;;;15.60;63.90;;;;;;4989407;28;20048;-33
2022/12/06 05:23:53;;;;;;;2.00;1.90;;;15.60;64.00;;;;;;4975481;28;20061;-31
2022/12/06 05:26:19;;;;;;;2.17;2.08;;;15.60;64.10;;;;;;4988056;28;20038;-32
2022/12/06 05:28:45;;;;;;;2.30;2.20;;;15.50;63.80;;;;;;4987173;28;20054;-31
2022/12/06 05:31:10;;;;;;;2.30;2.20;;;15.60;64.00;;;;;;4984771;28;20085;-31
2022/12/06 05:33:36;;;;;;;2.40;2.30;;;15.60;63.80;;;;;;4987458;28;20515;-32
2022/12/06 05:36:07;;;;;;;2.08;1.98;;;15.60;63.90;;;;;;4985583;28;20042;-18
2022/12/06 05:38:32;;;;;;;2.38;2.20;;;15.60;64.00;;;;;;4988253;28;20403;-18
2022/12/06 05:40:58;;;;;;;2.10;2.00;;;15.60;64.10;;;;;;4985920;28;20566;-18
2022/12/06 05:43:23;;;;;;;2.10;2.00;;;15.60;64.00;;;;;;4989360;28;20130;-18
2022/12/06 05:45:52;;;;;;;2.20;2.10;;;15.60;64.00;;;;;;4989157;28;20491;-18
2022/12/06 05:48:17;;;;;;;1.90;1.80;;;15.60;64.00;;;;;;4985778;28;20046;-18
2022/12/06 05:50:45;;;;;;;2.00;1.90;;;15.60;64.00;;;;;;4986912;28;20045;-17
2022/12/06 05:53:10;;;;;;;2.10;2.00;;;15.60;64.10;;;;;;4983190;28;20078;-18
2022/12/06 05:55:36;;;;;;;2.00;1.90;;;15.60;64.10;;;;;;4986169;28;20074;-18
2022/12/06 05:58:02;;;;;;;2.05;1.95;;;15.50;64.60;;;;;;4981947;28;20420;-18
2022/12/06 06:00:27;;;;;;;2.40;2.30;;;15.60;64.00;;;;;;4986993;28;20114;-18
2022/12/06 06:02:53;;;;;;;2.40;2.30;;;15.50;64.00;;;;;;4983517;28;20404;-18
2022/12/06 06:05:18;;;;;;;2.15;2.05;;;15.50;64.00;;;;;;4987638;28;20045;-27
2022/12/06 06:07:44;;;;;;;2.20;2.10;;;15.50;64.00;;;;;;4986721;28;20049;-19
2022/12/06 06:10:10;;;;;;;2.17;2.08;;;15.60;63.80;;;;;;5009544;28;20049;-18
2022/12/06 06:12:35;;;;;;;2.25;2.15;;;15.60;63.80;;;;;;4986269;28;20393;-18
2022/12/06 06:15:03;;;;;;;2.10;2.00;;;15.50;64.00;;;;;;4985491;28;20051;-19
2022/12/06 06:17:29;;;;;;;2.10;2.00;;;15.50;63.90;;;;;;4986448;28;20074;-19
2022/12/06 06:19:55;;;;;;;1.90;1.80;;;15.50;64.00;;;;;;4985727;28;20551;-19
2022/12/06 06:22:21;;;;;;;1.90;1.80;;;15.50;64.00;;;;;;4986977;28;20061;-19
2022/12/06 06:24:47;;;;;;;2.22;2.13;;;15.50;64.00;;;;;;4985775;28;20042;-18
2022/12/06 06:27:13;;;;;;;2.30;2.20;;;15.50;64.80;;;;;;4984218;28;20096;-19
2022/12/06 06:29:39;;;;;;;2.08;1.98;;;15.50;64.00;;;;;;4986899;28;20046;-18
2022/12/06 06:32:04;;;;;;;2.00;1.90;;;15.50;64.00;;;;;;4986374;28;20108;-18
2022/12/06 06:34:30;;;;;;;2.25;2.15;;;15.50;63.70;;;;;;4987693;28;20049;-18
2022/12/06 06:36:55;;;;;;;2.10;2.00;;;15.50;63.90;;;;;;4985418;28;20092;-18
2022/12/06 06:39:21;;;;;;;2.20;2.10;;;15.50;63.90;;;;;;4987195;28;20245;-18
2022/12/06 06:41:46;;;;;;;2.13;2.00;;;15.50;63.90;;;;;;4983831;28;20563;-18
2022/12/06 06:44:12;;;;;;;1.80;1.70;;;15.50;63.80;;;;;;4986651;28;20053;-18
2022/12/06 06:46:38;;;;;;;1.92;1.83;;;15.50;63.90;;;;;;4988036;28;20069;-18
2022/12/06 06:49:03;;;;;;;1.90;1.80;;;15.50;64.00;;;;;;4988255;28;20518;-19
2022/12/06 06:51:30;;;;;;;2.10;2.00;;;15.50;64.20;;;;;;4979719;28;20048;-19
2022/12/06 06:53:56;;;;;;;2.40;2.30;;;15.60;64.00;;;;;;4987555;28;20046;-20
2022/12/06 06:56:21;;;;;;;2.20;2.10;;;15.70;63.80;;;;;;4985842;28;20096;-21
2022/12/06 06:58:47;;;;;;;2.50;2.38;;;15.60;63.80;;;;;;4987126;28;20038;-20
2022/12/06 07:01:17;;;;;;;2.53;2.33;;;15.50;64.10;;;;;;4986172;28;20066;-20
2022/12/06 07:03:43;;;;;;;2.67;2.47;;;15.50;64.20;;;;;;4633426;28;9999681;-20
2022/12/06 07:06:08;;;;;;;3.25;3.05;;;15.50;64.20;;;;;;4981220;28;20030;-23
2022/12/06 07:08:34;;;;;;;3.70;3.45;;;15.50;64.20;;;;;;4981846;28;20355;-20
2022/12/06 07:11:00;;;;;;;4.15;3.75;;;15.50;64.30;;;;;;4978254;28;20054;-20
2022/12/06 07:13:26;;;;;;;3.85;3.55;;;15.50;64.20;;;;;;4985134;28;20058;-23
2022/12/06 07:15:52;;;;;;;3.85;3.50;;;15.50;64.80;;;;;;4985800;28;20089;-21
2022/12/06 07:18:18;;;;;;;3.70;3.40;;;15.50;63.90;;;;;;4984456;28;20050;-22
2022/12/06 07:20:44;;;;;;;4.57;4.10;;;15.50;64.00;;;;;;4984286;28;21880;-20
2022/12/06 07:23:09;;;;;;;5.45;4.03;;;15.50;64.60;;;;;;4986325;28;20046;-21
2022/12/06 07:25:35;;;;;;;3.90;3.70;;;15.50;63.80;;;;;;4984485;28;20048;-21
2022/12/06 07:28:00;;;;;;;3.78;3.40;;;15.50;63.90;;;;;;4987022;28;20054;-19
2022/12/06 07:30:26;;;;;;;4.35;3.90;;;15.50;64.20;;;;;;4987731;28;20133;-20
2022/12/06 07:32:52;;;;;;;3.15;2.95;;;15.50;64.30;;;;;;4986357;28;20566;-23
2022/12/06 07:35:18;;;;;;;3.60;3.30;;;15.50;64.60;;;;;;4986547;28;20061;-20
2022/12/06 07:37:44;;;;;;;3.78;3.20;;;15.50;64.60;;;;;;4987011;28;20046;-21
2022/12/06 07:40:10;;;;;;;3.72;3.42;;;15.50;64.50;;;;;;4987283;28;20046;-19
2022/12/06 07:45:20;;;;;;;3.80;3.50;;;15.50;64.70;;;;;;4985291;28;20459;-20
2022/12/06 07:47:45;;;;;;;3.83;3.53;;;15.50;64.60;;;;;;4983644;28;20058;-20
2022/12/06 07:50:14;;;;;;;3.22;3.03;;;15.50;64.60;;;;;;4985581;28;20034;-22
2022/12/06 07:52:40;;;;;;;4.05;3.30;;;15.50;64.60;;;;;;4989109;28;20035;-21
2022/12/06 07:55:06;;;;;;;3.47;3.17;;;15.50;64.50;;;;;;4989904;28;20125;-20
2022/12/06 07:57:32;;;;;;;3.20;3.00;;;15.50;64.20;;;;;;4991215;28;20042;-20
2022/12/06 07:59:58;;;;;;;3.88;3.30;;;15.50;64.10;;;;;;4989376;28;20385;-20
2022/12/06 08:02:25;;;;;;;3.70;3.40;;;15.50;64.20;;;;;;4991027;28;20054;-21
2022/12/06 08:04:50;;;;;;;3.35;3.15;;;15.50;64.20;;;;;;4989478;28;20431;-20
2022/12/06 08:07:16;;;;;;;3.15;2.95;;;15.60;64.10;;;;;;4988779;28;20037;-20
2022/12/06 08:09:42;;;;;;;3.85;3.28;;;15.50;64.00;;;;;;4990788;28;20049;-20
2022/12/06 08:12:07;;;;;;;3.45;3.25;;;15.50;64.20;;;;;;4989958;28;20070;-25
2022/12/06 08:14:34;;;;;;;3.10;2.90;;;15.50;64.20;;;;;;4990374;28;20061;-20
2022/12/06 08:16:59;;;;;;;3.28;2.97;;;15.50;64.20;;;;;;4989378;28;20039;-22
2022/12/06 08:19:25;;;;;;;3.10;2.90;;;15.50;64.10;;;;;;4990879;28;20411;-20
2022/12/06 08:21:50;;;;;;;3.47;3.17;;;15.50;64.20;;;;;;4990100;28;20034;-22
2022/12/06 08:24:16;;;;;;;3.28;2.97;;;15.50;64.20;;;;;;4989628;28;20026;-21
2022/12/06 08:26:42;;;;;;;3.63;3.33;;;15.50;64.20;;;;;;4990082;28;20145;-20
2022/12/06 08:29:07;;;;;;;3.13;2.92;;;15.50;64.10;;;;;;4989369;28;20511;-22
2022/12/06 08:31:36;;;;;;;2.78;2.58;;;15.50;64.20;;;;;;4990303;28;20050;-21
2022/12/06 08:34:01;;;;;;;2.97;2.78;;;15.40;64.20;;;;;;4988425;28;20512;-22
2022/12/06 08:36:27;;;;;;;2.90;2.70;;;15.50;64.20;;;;;;4988834;28;20053;-20
2022/12/06 08:38:53;;;;;;;2.75;2.55;;;15.40;64.20;;;;;;4990626;28;20594;-20
2022/12/06 08:44:04;;;;;;;3.85;2.70;;;15.40;65.00;;;;;;4989601;28;20053;-20
2022/12/06 08:46:30;;;;;;;2.50;2.30;;;15.40;64.10;;;;;;4990532;28;20050;-20
2022/12/06 08:48:55;;;;;;;2.90;2.70;;;15.40;64.10;;;;;;4989142;28;20058;-20
2022/12/06 08:51:21;;;;;;;2.70;2.50;;;15.40;64.10;;;;;;4986281;28;20047;-22
2022/12/06 08:53:46;;;;;;;2.80;2.60;;;15.40;64.00;;;;;;4976414;28;20069;-20
2022/12/06 08:56:12;;;;;;;3.00;2.78;;;15.40;63.90;;;;;;4988682;28;20079;-20
2022/12/06 08:58:37;;;;;;;2.58;2.38;;;15.40;64.00;;;;;;4990250;28;20423;-20
2022/12/06 09:01:14;;;;;;;2.88;2.67;;;15.40;64.10;;;;;;4988715;28;20023;-20
2022/12/06 09:03:39;;;;;;;2.90;2.72;;;15.40;64.10;;;;;;4986977;28;20050;-20
2022/12/06 09:06:05;;;;;;;2.50;2.30;;;15.40;64.00;;;;;;4989477;28;20046;-20
2022/12/06 09:08:31;;;;;;;2.88;2.67;;;15.40;63.90;;;;;;4989524;28;20507;-20
2022/12/06 09:10:57;;;;;;;3.28;2.38;;;15.40;64.00;;;;;;4990221;28;20073;-24
2022/12/06 09:13:22;;;;;;;2.97;2.78;;;15.40;64.00;;;;;;5004048;28;20480;-20
2022/12/06 09:15:48;;;;;;;2.60;2.38;;;15.40;64.00;;;;;;4990165;28;20092;-20
2022/12/06 09:18:13;;;;;;;2.95;2.63;;;15.40;63.80;;;;;;4987989;28;20042;-20
2022/12/06 09:20:39;;;;;;;2.78;2.58;;;15.40;63.90;;;;;;4989047;28;20034;-20
2022/12/06 09:23:05;;;;;;;2.47;2.28;;;15.40;63.80;;;;;;4988486;28;20118;-20
2022/12/06 09:25:31;;;;;;;2.67;2.47;;;15.40;63.80;;;;;;4989879;28;20046;-21
2022/12/06 09:27:57;;;;;;;2.83;2.60;;;15.40;63.70;;;;;;4989321;28;20048;-22
2022/12/06 09:30:23;;;;;;;2.30;2.20;;;15.40;63.00;;;;;;4987604;28;20046;-21
2022/12/06 09:32:48;;;;;;;2.38;2.28;;;15.40;63.70;;;;;;4989411;28;20093;-20
2022/12/06 09:35:14;;;;;;;2.45;2.35;;;15.40;63.80;;;;;;4987866;28;20125;-20
2022/12/06 09:37:40;;;;;;;2.65;2.45;;;15.50;63.80;;;;;;4988563;28;20054;-21
2022/12/06 09:40:14;;;;;;;2.60;2.40;;;15.40;63.80;;;;;;4986803;28;20474;-25
2022/12/06 09:43:01;;;;;;;2.40;2.20;;;15.40;63.50;;;;;;4987357;28;20491;-20
2022/12/06 09:46:05;;;;;;;2.33;2.22;;;15.50;63.70;;;;;;4988014;28;20070;-22
2022/12/06 09:48:46;;;;;;;2.30;2.10;;;15.40;64.00;;;;;;4944126;28;20583;-20
2022/12/06 09:51:17;;;;;;;2.70;2.50;;;15.50;63.80;;;;;;4947565;28;20053;-20
2022/12/06 09:54:16;;;;;;;2.42;2.30;;;15.50;63.70;;;;;;4947844;28;20074;-20
2022/12/06 09:57:05;;;;;;;2.10;2.00;;;15.50;64.10;;;;;;4932205;28;20094;-21
2022/12/06 10:00:01;;;;;;;2.10;2.00;;;15.40;64.40;;;;;;4937181;29;20101;-20
2022/12/06 10:02:45;;;;;;;2.17;2.08;;;15.40;64.50;;;;;;4947193;28;20043;-20
2022/12/06 10:05:28;;;;;;;1.92;1.83;;;15.40;64.60;;;;;;4947366;28;20090;-20
2022/12/06 10:08:13;;;;;;;3.20;2.20;;;15.40;64.60;;;;;;4947939;28;20119;-20
2022/12/06 10:10:57;;;;;;;2.30;2.20;;;15.40;64.60;;;;;;4929758;29;20141;-20
2022/12/06 10:13:29;;;;;;;2.05;1.95;;;15.40;64.60;;;;;;4931705;28;20530;-20
2022/12/06 10:16:09;;;;;;;2.05;1.95;;;15.40;64.50;;;;;;4928498;29;20031;-24
2022/12/06 10:19:16;;;;;;;1.95;1.85;;;15.40;64.50;;;;;;4947019;28;20452;-20
2022/12/06 10:22:09;;;;;;;2.20;2.10;;;15.40;64.60;;;;;;4943507;28;20051;-20
2022/12/06 10:24:43;;;;;;;2.00;1.90;;;15.50;64.40;;;;;;4957731;28;20042;-20
2022/12/06 10:27:11;;;;;;;2.10;2.00;;;15.50;64.40;;;;;;4986456;28;20042;-19
2022/12/06 10:29:48;;;;;;;2.00;1.90;;;15.50;64.40;;;;;;4986556;28;20027;-21
2022/12/06 10:32:16;;;;;;;2.00;1.90;;;15.50;64.40;;;;;;4987275;28;20038;-20
2022/12/06 10:34:56;;;;;;;2.28;2.03;;;15.60;63.90;;;;;;4986509;28;20122;-20
2022/12/06 10:37:55;;;;;;;1.90;1.80;;;15.50;64.00;;;;;;4985104;28;20042;-20
2022/12/06 10:40:28;;;;;;;1.73;1.63;;;15.70;63.60;;;;;;4984621;28;20554;-20
2022/12/06 10:43:03;;;;;;;1.83;1.73;;;15.80;63.20;;;;;;4986215;28;20046;-20
2022/12/06 10:48:36;;;;;;;3.03;1.80;;;16.00;62.90;;;;;;4986050;28;20141;-20
2022/12/06 10:51:06;;;;;;;1.80;1.70;;;16.10;62.40;;;;;;4984214;28;20511;-20
2022/12/06 10:53:33;;;;;;;2.08;1.98;;;16.20;62.20;;;;;;4985963;28;20047;-20
2022/12/06 10:56:04;;;;;;;2.13;2.03;;;16.20;62.10;;;;;;4985644;28;20050;-20
2022/12/06 10:58:41;;;;;;;2.20;2.00;;;16.10;62.00;;;;;;4986325;28;20093;-22
2022/12/06 11:01:16;;;;;;;1.70;1.60;;;16.10;62.30;;;;;;4986231;28;20057;-18
2022/12/06 11:03:49;;;;;;;2.50;2.25;;;16.20;62.00;;;;;;4986342;28;20068;-22
2022/12/06 11:06:30;;;;;;;2.27;2.17;;;16.00;62.20;;;;;;4966070;28;20397;-21
2022/12/06 11:08:58;;;;;;;2.10;2.00;;;16.10;62.20;;;;;;4985867;28;20046;-20
2022/12/06 11:11:28;;;;;;;1.90;1.80;;;16.10;62.40;;;;;;4985621;28;20117;-20
2022/12/06 11:13:57;;;;;;;1.90;1.77;;;16.10;62.10;;;;;;4983341;28;20547;-20
2022/12/06 11:16:46;;;;;;;2.70;2.50;;;16.20;62.10;;;;;;4975721;28;21509;-19
2022/12/06 11:19:37;;;;;;;1.95;1.85;;;16.10;62.20;;;;;;4965658;28;20173;-20
2022/12/06 11:22:14;;;;;;;2.25;2.15;;;16.10;62.30;;;;;;4971037;28;20188;-20
2022/12/06 11:24:47;;;;;;;1.90;1.80;;;16.10;62.50;;;;;;4972442;28;20046;-21
2022/12/06 11:27:35;;;;;;;2.00;1.90;;;16.10;62.60;;;;;;4971654;28;20058;-24
2022/12/06 11:30:01;;;;;;;1.80;1.70;;;16.00;62.80;;;;;;4971875;28;20168;-20
2022/12/06 11:32:27;;;;;;;1.98;1.88;;;16.00;62.60;;;;;;4973405;28;20599;-28
2022/12/06 11:34:54;;;;;;;1.95;1.85;;;16.00;62.90;;;;;;4973794;28;20050;-32
2022/12/06 11:37:22;;;;;;;2.20;2.10;;;16.00;62.90;;;;;;4971203;28;20719;-21
2022/12/06 11:39:49;;;;;;;1.92;1.83;;;16.00;62.70;;;;;;4972844;28;20669;-20
2022/12/06 11:42:15;;;;;;;1.90;1.80;;;16.10;62.70;;;;;;4971879;28;20051;-22
2022/12/06 11:44:52;;;;;;;2.03;1.80;;;16.10;62.70;;;;;;4972261;28;20042;-26
2022/12/06 11:47:20;;;;;;;2.13;1.92;;;16.10;62.80;;;;;;4970648;28;20046;-20
2022/12/06 11:49:46;;;;;;;1.88;1.77;;;16.10;62.60;;;;;;4971807;28;20050;-20
2022/12/06 11:52:43;;;;;;;2.10;2.00;;;16.10;62.50;;;;;;4971207;28;20046;-20
2022/12/06 11:55:16;;;;;;;1.88;1.77;;;16.10;62.60;;;;;;4967904;28;20058;-19
2022/12/06 11:58:05;;;;;;;1.95;1.85;;;16.10;62.60;;;;;;4952887;28;20050;-20
2022/12/06 12:00:30;;;;;;;2.00;1.90;;;16.10;62.30;;;;;;4974538;28;20053;-20
2022/12/06 12:02:56;;;;;;;1.70;1.60;;;16.10;62.50;;;;;;4977247;28;20030;-21
2022/12/06 12:05:23;;;;;;;1.70;1.60;;;16.10;62.30;;;;;;4975125;28;20655;-20
2022/12/06 12:07:55;;;;;;;1.90;1.80;;;16.20;62.40;;;;;;4976165;28;20538;-22
2022/12/06 12:10:25;;;;;;;1.50;1.40;;;16.10;62.50;;;;;;4976483;28;20669;-22
2022/12/06 12:15:35;;;;;;;1.58;1.48;;;16.20;62.40;;;;;;4988387;28;20092;-20
2022/12/06 12:18:01;;;;;;;2.13;1.92;;;16.10;62.30;;;;;;4970730;28;20507;-20
2022/12/06 12:20:32;;;;;;;1.73;1.63;;;16.20;62.30;;;;;;5002439;28;20042;-20
2022/12/06 12:23:20;;;;;;;1.88;1.77;;;16.20;62.40;;;;;;4975315;28;20046;-20
2022/12/06 12:26:16;;;;;;;2.10;1.52;;;16.20;62.40;;;;;;4974938;28;20427;-20
2022/12/06 12:28:42;;;;;;;1.98;1.88;;;16.20;62.40;;;;;;4974291;28;20104;-20
2022/12/06 12:31:15;;;;;;;2.03;1.92;;;16.20;62.20;;;;;;4975471;28;20057;-20
2022/12/06 12:33:40;;;;;;;1.88;1.77;;;16.30;62.40;;;;;;4976106;28;20046;-20
2022/12/06 12:36:06;;;;;;;2.10;2.00;;;16.30;62.20;;;;;;4977012;28;20608;-20
2022/12/06 12:38:47;;;;;;;1.70;1.60;;;16.20;63.00;;;;;;4989234;28;20049;-20
2022/12/06 12:41:19;;;;;;;1.70;1.60;;;16.30;63.10;;;;;;4988850;28;20050;-24
2022/12/06 12:43:57;;;;;;;2.20;2.00;;;16.30;62.80;;;;;;4986448;28;20046;-20
2022/12/06 12:46:23;;;;;;;1.92;1.83;;;16.30;62.70;;;;;;4988244;28;20511;-20
2022/12/06 12:48:49;;;;;;;1.88;1.77;;;16.30;63.10;;;;;;5018452;28;20074;-20
2022/12/06 12:51:22;;;;;;;1.80;1.70;;;16.30;63.10;;;;;;4989634;28;20128;-24
2022/12/06 12:53:56;;;;;;;1.90;1.55;;;16.30;63.60;;;;;;4987434;28;20065;-20
2022/12/06 12:56:22;;;;;;;2.08;1.98;;;16.20;63.40;;;;;;5012102;28;20046;-20
2022/12/06 12:58:53;;;;;;;1.45;1.38;;;16.30;63.60;;;;;;4989640;28;20038;-20
2022/12/06 13:01:44;;;;;;;1.70;1.60;;;16.30;63.10;;;;;;4988135;28;20535;-24
2022/12/06 13:04:28;;;;;;;1.85;1.75;;;16.40;63.00;;;;;;4988157;28;20139;-20
2022/12/06 13:07:11;;;;;;;3.55;1.75;;;16.40;63.40;;;;;;4985667;28;20038;-23
2022/12/06 13:09:39;;;;;;;2.00;1.80;;;16.30;63.10;;;;;;4985362;28;20482;-24
2022/12/06 13:12:37;;;;;;;1.52;1.40;;;16.30;63.70;;;;;;4983657;28;20519;-20
2022/12/06 13:15:19;;;;;;;1.70;1.60;;;16.30;63.50;;;;;;4969863;28;20047;-20
2022/12/06 13:17:48;;;;;;;1.35;1.35;;;16.30;63.60;;;;;;5001996;28;20511;-20
2022/12/06 13:20:34;;;;;;;2.10;2.00;;;16.20;63.40;;;;;;4986254;28;20124;-23
2022/12/06 13:23:03;;;;;;;1.92;1.83;;;16.30;63.50;;;;;;4984292;28;20058;-21
2022/12/06 13:25:29;;;;;;;2.00;1.90;;;16.30;63.40;;;;;;5009562;28;20129;-22
2022/12/06 13:27:56;;;;;;;2.08;1.73;;;16.30;63.40;;;;;;4988221;28;20188;-20
2022/12/06 13:30:23;;;;;;;2.00;1.90;;;16.30;63.30;;;;;;4988023;28;20039;-22
2022/12/06 13:32:53;;;;;;;2.13;2.03;;;16.30;63.40;;;;;;4985346;28;20035;-21